Terminal Aerodrome Forecast
Issued by NWS

Home | Current Version | Previous Version | Text Only | Print | Product List | Glossary On
Versions: 1 2 3 4 5 6 7 8 9 10 11 12 13 14
000
FTUS45 KRIW 171735
TAFWRL
TAF
KWRL 171735Z 1718/1818 31009KT P6SM SCT025 OVC100
     FM172100 33012G20KT P6SM VCSH BKN025 OVC100
     FM180300 31009KT P6SM SCT050 BKN100
     FM180600 VRB05KT P6SM SCT100=

USA.gov is the U.S. government's official web portal to all federal, state and local government web resources and services.